createdAt,value
2023-07-02T00:01:50.774Z,94.32
2023-07-02T00:04:17.717Z,94.35
2023-07-02T00:06:46.176Z,94.13
2023-07-02T00:09:13.733Z,93.65
2023-07-02T00:11:42.266Z,93.86
2023-07-02T00:14:09.678Z,92.97
2023-07-02T00:16:36.695Z,93.28
2023-07-02T00:19:03.263Z,93.75
2023-07-02T00:21:29.863Z,93.34
2023-07-02T00:23:59.226Z,92.96
2023-07-02T00:26:26.149Z,93.00
2023-07-02T00:28:54.872Z,92.72
2023-07-02T00:31:21.686Z,92.46
2023-07-02T00:33:49.051Z,92.04
2023-07-02T00:36:15.633Z,92.16
2023-07-02T00:38:42.884Z,92.03
2023-07-02T00:41:10.928Z,91.86
2023-07-02T00:43:37.652Z,91.45
2023-07-02T00:46:05.043Z,91.50
2023-07-02T00:48:31.929Z,92.19
2023-07-02T00:50:58.606Z,91.38
2023-07-02T00:53:25.304Z,91.36
2023-07-02T00:55:51.859Z,91.61
2023-07-02T00:58:19.827Z,91.52
2023-07-02T01:00:46.635Z,90.93
2023-07-02T01:03:13.462Z,91.70
2023-07-02T01:05:40.100Z,91.36
2023-07-02T01:08:06.963Z,91.04
2023-07-02T01:10:34.056Z,91.14
2023-07-02T01:13:03.503Z,91.54
2023-07-02T01:15:32.676Z,92.79
2023-07-02T01:17:59.798Z,92.77
2023-07-02T01:20:28.246Z,93.15
2023-07-02T01:22:54.920Z,93.01
2023-07-02T01:25:21.624Z,93.44
2023-07-02T01:27:48.378Z,93.34
2023-07-02T01:30:14.967Z,93.08
2023-07-02T01:32:41.624Z,93.34
2023-07-02T01:35:09.546Z,93.42
2023-07-02T01:37:37.597Z,93.31
2023-07-02T01:40:04.688Z,93.16
2023-07-02T01:42:31.281Z,93.60
2023-07-02T01:44:58.027Z,93.49
2023-07-02T01:47:24.626Z,93.07
2023-07-02T01:49:51.504Z,93.26
2023-07-02T01:52:18.314Z,93.45
2023-07-02T01:54:46.360Z,93.10
2023-07-02T01:57:12.959Z,92.95
2023-07-02T01:59:39.617Z,93.16
2023-07-02T02:02:06.232Z,93.44
2023-07-02T02:04:36.500Z,93.05
2023-07-02T02:07:03.482Z,93.13
2023-07-02T02:09:30.082Z,92.97
2023-07-02T02:11:57.974Z,93.71
2023-07-02T02:14:24.767Z,94.16
2023-07-02T02:16:51.943Z,94.31
2023-07-02T02:19:18.550Z,94.57
2023-07-02T02:21:45.206Z,94.70
2023-07-02T02:24:12.086Z,95.57
2023-07-02T02:26:38.816Z,95.81
2023-07-02T02:29:06.842Z,96.10
2023-07-02T02:31:33.578Z,96.33
2023-07-02T02:34:01.245Z,96.35
2023-07-02T02:36:27.902Z,96.26
2023-07-02T02:38:55.175Z,95.65
2023-07-02T02:41:21.964Z,95.45
2023-07-02T02:43:51.927Z,95.15
2023-07-02T02:46:24.435Z,95.00
2023-07-02T02:48:52.345Z,94.77
2023-07-02T02:51:18.991Z,95.04
2023-07-02T02:53:45.639Z,94.62
2023-07-02T02:56:12.270Z,94.32
2023-07-02T02:58:38.900Z,94.42
2023-07-02T03:01:05.492Z,94.78
2023-07-02T03:03:33.509Z,94.86
2023-07-02T03:06:00.201Z,94.63
2023-07-02T03:08:26.821Z,94.80
2023-07-02T03:10:53.407Z,95.30
2023-07-02T03:13:20.064Z,95.70
2023-07-02T03:15:46.699Z,96.53
2023-07-02T03:18:13.307Z,96.60
2023-07-02T03:20:41.704Z,96.71
2023-07-02T03:23:09.128Z,96.36
2023-07-02T03:25:35.778Z,96.37
2023-07-02T03:28:02.394Z,96.13
2023-07-02T03:30:28.978Z,95.69
2023-07-02T03:32:55.894Z,95.76
2023-07-02T03:35:22.520Z,95.99
2023-07-02T03:37:50.481Z,96.33
2023-07-02T03:40:17.245Z,95.54
2023-07-02T03:42:44.391Z,95.30
2023-07-02T03:45:11.378Z,95.27
2023-07-02T03:47:38.049Z,95.33
2023-07-02T03:50:05.389Z,94.61
2023-07-02T03:52:32.003Z,94.23
2023-07-02T03:54:59.929Z,94.95
2023-07-02T03:57:26.492Z,94.86
2023-07-02T03:59:54.071Z,94.43
2023-07-02T04:02:20.691Z,94.57
2023-07-02T04:04:47.333Z,94.97
2023-07-02T04:07:13.941Z,94.57
2023-07-02T04:09:40.596Z,94.36
2023-07-02T04:12:09.213Z,93.91
2023-07-02T04:14:35.808Z,94.16
2023-07-02T04:17:03.051Z,94.43
2023-07-02T04:19:29.666Z,93.99
2023-07-02T04:21:56.234Z,93.94
2023-07-02T04:24:23.348Z,94.33
2023-07-02T04:27:37.173Z,94.14
2023-07-02T04:29:38.496Z,94.06
2023-07-02T04:32:06.113Z,93.69
2023-07-02T04:34:32.742Z,93.84
2023-07-02T04:36:59.368Z,93.13
2023-07-02T04:39:25.967Z,93.21
2023-07-02T04:41:52.523Z,92.63
2023-07-02T04:44:19.653Z,92.21
2023-07-02T04:46:47.701Z,92.25
2023-07-02T04:49:14.379Z,92.23
2023-07-02T04:51:41.029Z,92.01
2023-07-02T04:54:07.635Z,91.07
2023-07-02T04:56:34.225Z,91.06
2023-07-02T04:59:00.779Z,90.53
2023-07-02T05:01:29.043Z,90.42
2023-07-02T05:03:57.055Z,90.14
2023-07-02T05:06:23.696Z,91.01
2023-07-02T05:08:50.351Z,90.52
2023-07-02T05:11:17.251Z,90.70
2023-07-02T05:13:43.818Z,90.82
2023-07-02T05:16:10.425Z,90.99
2023-07-02T05:18:37.381Z,89.59
2023-07-02T05:21:05.455Z,89.21
2023-07-02T05:23:32.071Z,88.64
2023-07-02T05:25:58.667Z,89.08
2023-07-02T05:28:25.238Z,89.57
2023-07-02T05:30:51.911Z,89.23
2023-07-02T05:33:20.076Z,88.44
2023-07-02T05:35:46.681Z,87.82
2023-07-02T05:38:14.640Z,88.71
2023-07-02T05:40:41.295Z,87.50
2023-07-02T05:43:07.905Z,87.73
2023-07-02T05:45:34.495Z,87.81
2023-07-02T05:48:01.140Z,87.80
2023-07-02T05:50:27.835Z,88.26
2023-07-02T05:52:54.441Z,87.20
2023-07-02T05:55:22.450Z,86.74
2023-07-02T05:57:49.064Z,86.42
2023-07-02T06:00:16.551Z,86.75
2023-07-02T06:02:47.630Z,86.07
2023-07-02T06:05:14.318Z,85.65
2023-07-02T06:07:40.973Z,85.04
2023-07-02T06:10:07.994Z,86.24
2023-07-02T06:12:35.991Z,85.90
2023-07-02T06:15:03.726Z,84.54
2023-07-02T06:17:30.353Z,84.69
2023-07-02T06:19:56.996Z,83.75
2023-07-02T06:22:24.009Z,83.53
2023-07-02T06:24:50.597Z,83.65
2023-07-02T06:27:17.280Z,83.62
2023-07-02T06:29:45.204Z,82.50
2023-07-02T06:32:11.795Z,82.71
2023-07-02T06:34:38.413Z,83.03
2023-07-02T06:37:05.475Z,82.95
2023-07-02T06:39:32.122Z,83.11
2023-07-02T06:41:58.717Z,79.54
2023-07-02T06:44:29.638Z,78.23
2023-07-02T06:46:57.634Z,80.12
2023-07-02T06:49:24.237Z,79.86
2023-07-02T06:51:50.789Z,79.61
2023-07-02T06:54:17.348Z,77.34
2023-07-02T06:56:43.951Z,76.69
2023-07-02T06:59:10.560Z,75.46
2023-07-02T07:01:37.121Z,73.03
2023-07-02T07:04:05.208Z,72.71
2023-07-02T07:06:31.858Z,73.38
2023-07-02T07:08:58.408Z,74.23
2023-07-02T07:11:24.974Z,73.92
2023-07-02T07:13:51.540Z,74.62
2023-07-02T07:16:18.760Z,74.52
2023-07-02T07:18:45.431Z,74.18
2023-07-02T07:21:13.445Z,74.47
2023-07-02T07:23:40.275Z,74.12
2023-07-02T07:26:07.037Z,74.03
2023-07-02T07:28:33.691Z,72.52
2023-07-02T07:31:00.479Z,73.07
2023-07-02T07:33:27.036Z,72.49
2023-07-02T07:35:53.899Z,71.16
2023-07-02T07:38:21.844Z,71.62
2023-07-02T07:40:48.888Z,70.82
2023-07-02T07:43:15.779Z,73.42
2023-07-02T07:45:42.466Z,72.26
2023-07-02T07:48:09.124Z,70.37
2023-07-02T07:50:35.799Z,71.80
2023-07-02T07:53:02.534Z,69.33
2023-07-02T07:55:30.555Z,70.09
2023-07-02T07:57:57.206Z,70.52
2023-07-02T08:00:23.825Z,74.81
2023-07-02T08:02:50.645Z,74.16
2023-07-02T08:05:17.308Z,73.68
2023-07-02T08:07:43.867Z,73.32
2023-07-02T08:10:11.181Z,72.17
2023-07-02T08:12:39.160Z,72.50
2023-07-02T08:15:07.069Z,72.10
2023-07-02T08:17:33.654Z,70.42
2023-07-02T08:20:00.243Z,68.16
2023-07-02T08:22:26.871Z,66.55
2023-07-02T08:24:53.419Z,69.22
2023-07-02T08:27:20.001Z,68.36
2023-07-02T08:29:48.266Z,68.87
2023-07-02T08:32:15.072Z,69.72
2023-07-02T08:34:41.795Z,67.82
2023-07-02T08:37:08.368Z,64.66
2023-07-02T08:39:35.168Z,65.42
2023-07-02T08:42:01.723Z,66.48
2023-07-02T08:44:28.320Z,67.41
2023-07-02T08:46:56.580Z,67.38
2023-07-02T08:49:23.589Z,67.63
2023-07-02T08:51:50.184Z,66.62
2023-07-02T08:54:18.445Z,66.46
2023-07-02T08:56:45.480Z,65.14
2023-07-02T08:59:12.137Z,65.09
2023-07-02T09:01:48.761Z,63.90
2023-07-02T09:04:20.835Z,64.92
2023-07-02T09:06:48.479Z,64.71
2023-07-02T09:09:15.152Z,63.01
2023-07-02T09:11:48.228Z,62.70
2023-07-02T09:14:25.142Z,62.42
2023-07-02T09:17:02.642Z,62.85
2023-07-02T09:19:31.150Z,64.29
2023-07-02T09:21:59.256Z,63.45
2023-07-02T09:24:26.242Z,65.61
2023-07-02T09:26:54.391Z,64.89
2023-07-02T09:29:23.583Z,64.72
2023-07-02T09:32:07.901Z,66.38
2023-07-02T09:34:38.749Z,66.76
2023-07-02T09:37:06.771Z,66.07
2023-07-02T09:39:34.566Z,66.92
2023-07-02T09:42:03.115Z,67.72
2023-07-02T09:44:30.834Z,68.74
2023-07-02T09:47:02.715Z,68.72
2023-07-02T09:49:33.113Z,68.68
2023-07-02T09:52:01.960Z,68.25
2023-07-02T09:54:28.828Z,68.61
2023-07-02T09:56:56.229Z,68.17
2023-07-02T09:59:22.838Z,67.63
2023-07-02T10:01:49.504Z,68.36
2023-07-02T10:04:16.856Z,68.91
2023-07-02T10:06:47.913Z,66.93
2023-07-02T10:09:16.294Z,67.29
2023-07-02T10:11:43.148Z,66.90
2023-07-02T10:14:09.784Z,66.06
2023-07-02T10:16:50.074Z,66.43
2023-07-02T10:19:16.752Z,67.48
2023-07-02T10:21:43.606Z,65.18
2023-07-02T10:24:12.025Z,66.10
2023-07-02T10:26:39.959Z,65.12
2023-07-02T10:29:07.602Z,64.98
2023-07-02T10:31:34.209Z,65.81
2023-07-02T10:34:00.807Z,66.38
2023-07-02T10:36:27.689Z,66.32
2023-07-02T10:38:54.303Z,66.84
2023-07-02T10:41:25.620Z,64.46
2023-07-02T10:43:54.012Z,64.61
2023-07-02T10:46:20.932Z,63.34
2023-07-02T10:48:54.420Z,62.24
2023-07-02T10:51:21.051Z,59.94
2023-07-02T10:53:49.324Z,61.48
2023-07-02T10:56:17.717Z,61.70
2023-07-02T10:58:44.366Z,62.34
2023-07-02T11:01:12.784Z,63.23
2023-07-02T11:03:39.501Z,58.93
2023-07-02T11:06:06.251Z,60.57
2023-07-02T11:08:36.611Z,59.91
2023-07-02T11:11:07.602Z,58.16
2023-07-02T11:13:34.280Z,59.07
2023-07-02T11:16:00.891Z,58.96
2023-07-02T11:18:31.826Z,57.90
2023-07-02T11:20:58.610Z,58.87
2023-07-02T11:23:26.318Z,60.07
2023-07-02T11:25:57.354Z,60.20
2023-07-02T11:28:24.327Z,60.55
2023-07-02T11:30:51.044Z,60.92
2023-07-02T11:33:17.625Z,63.13
2023-07-02T11:35:45.655Z,61.38
2023-07-02T11:38:12.246Z,59.50
2023-07-02T11:40:38.922Z,60.08
2023-07-02T11:43:07.380Z,61.44
2023-07-02T11:45:33.984Z,61.08
2023-07-02T11:48:00.625Z,58.21
2023-07-02T11:50:27.870Z,59.33
2023-07-02T11:52:55.875Z,59.70
2023-07-02T11:55:22.719Z,60.52
2023-07-02T11:57:49.255Z,61.07
2023-07-02T12:00:15.999Z,61.41
2023-07-02T12:02:43.475Z,62.49
2023-07-02T12:05:12.368Z,60.91
2023-07-02T12:07:40.105Z,58.08
2023-07-02T12:10:09.222Z,59.55
2023-07-02T12:12:36.001Z,58.78
2023-07-02T12:15:02.695Z,60.37
2023-07-02T12:17:29.287Z,59.98
2023-07-02T12:19:55.892Z,60.38
2023-07-02T12:22:22.448Z,61.33
2023-07-02T12:24:48.999Z,61.63
2023-07-02T12:27:16.991Z,62.92
2023-07-02T12:29:43.581Z,62.16
2023-07-02T12:32:10.213Z,61.92
2023-07-02T12:34:36.852Z,59.61
2023-07-02T12:37:03.756Z,61.07
2023-07-02T12:39:30.311Z,61.65
2023-07-02T12:41:56.880Z,62.15
2023-07-02T12:44:24.822Z,60.48
2023-07-02T12:46:51.532Z,60.67
2023-07-02T12:49:18.219Z,59.84
2023-07-02T12:51:44.827Z,59.83
2023-07-02T12:54:11.445Z,59.85
2023-07-02T12:56:38.076Z,59.13
2023-07-02T12:59:04.715Z,58.26
2023-07-02T13:01:33.093Z,60.40
2023-07-02T13:03:59.930Z,61.50
2023-07-02T13:06:26.579Z,60.28
2023-07-02T13:08:53.187Z,60.43
2023-07-02T13:11:19.910Z,60.04
2023-07-02T13:13:46.514Z,59.37
2023-07-02T13:16:13.109Z,59.91
2023-07-02T13:18:41.085Z,60.16
2023-07-02T13:21:07.688Z,60.61
2023-07-02T13:23:34.257Z,60.45
2023-07-02T13:26:00.855Z,60.48
2023-07-02T13:28:27.464Z,59.51
2023-07-02T13:30:54.075Z,57.21
2023-07-02T13:33:20.756Z,56.98
2023-07-02T13:35:49.053Z,58.02
2023-07-02T13:38:15.942Z,56.53
2023-07-02T13:40:42.565Z,55.70
2023-07-02T13:43:09.147Z,57.40
2023-07-02T13:45:35.735Z,55.29
2023-07-02T13:48:02.379Z,57.58
2023-07-02T13:50:28.988Z,56.15
2023-07-02T13:52:56.982Z,56.47
2023-07-02T13:55:23.573Z,59.40
2023-07-02T13:57:50.161Z,59.73
2023-07-02T14:00:18.660Z,60.65
2023-07-02T14:02:45.340Z,61.21
2023-07-02T14:05:11.980Z,60.38
2023-07-02T14:07:38.584Z,60.73
2023-07-02T14:10:06.276Z,60.68
2023-07-02T14:12:32.921Z,61.50
2023-07-02T14:14:59.569Z,61.46
2023-07-02T14:17:27.525Z,60.59
2023-07-02T14:19:54.164Z,62.31
2023-07-02T14:22:20.850Z,61.05
2023-07-02T14:24:47.470Z,59.45
2023-07-02T14:27:14.121Z,58.44
2023-07-02T14:29:40.818Z,57.61
2023-07-02T14:32:08.489Z,58.72
2023-07-02T14:34:36.922Z,57.92
2023-07-02T14:37:03.954Z,58.13
2023-07-02T14:39:30.594Z,57.55
2023-07-02T14:41:57.331Z,56.01
2023-07-02T14:44:24.013Z,57.09
2023-07-02T14:46:50.762Z,57.61
2023-07-02T14:49:17.529Z,58.49
2023-07-02T14:51:45.527Z,59.11
2023-07-02T14:54:13.074Z,60.00
2023-07-02T14:56:39.702Z,57.75
2023-07-02T14:59:06.414Z,56.84
2023-07-02T15:01:33.028Z,58.90
2023-07-02T15:03:59.906Z,58.41
2023-07-02T15:06:29.187Z,59.56
2023-07-02T15:08:58.142Z,61.04
2023-07-02T15:11:24.709Z,61.25
2023-07-02T15:13:51.304Z,62.09
2023-07-02T15:16:26.610Z,62.19
2023-07-02T15:18:53.216Z,62.96
2023-07-02T15:21:19.944Z,62.28
2023-07-02T15:23:46.538Z,63.43
2023-07-02T15:26:14.493Z,64.54
2023-07-02T15:28:41.071Z,63.74
2023-07-02T15:31:09.879Z,63.33
2023-07-02T15:33:36.894Z,61.81
2023-07-02T15:36:07.721Z,59.06
2023-07-02T15:38:34.333Z,58.84
2023-07-02T15:41:09.489Z,60.62
2023-07-02T15:43:37.899Z,62.32
2023-07-02T15:46:05.003Z,63.72
2023-07-02T15:48:31.833Z,64.35
2023-07-02T15:50:58.505Z,62.88
2023-07-02T15:53:26.234Z,61.92
2023-07-02T15:55:56.199Z,62.92
2023-07-02T15:58:23.230Z,61.76
2023-07-02T16:00:51.228Z,61.01
2023-07-02T16:03:18.116Z,61.97
2023-07-02T16:05:45.052Z,62.93
2023-07-02T16:08:12.490Z,63.07
2023-07-02T16:10:41.895Z,62.42
2023-07-02T16:13:08.589Z,63.04
2023-07-02T16:15:38.110Z,62.83
2023-07-02T16:18:06.732Z,62.74
2023-07-02T16:20:33.374Z,62.35
2023-07-02T16:23:00.156Z,61.65
2023-07-02T16:25:26.737Z,61.64
2023-07-02T16:27:53.304Z,62.87
2023-07-02T16:30:20.301Z,63.54
2023-07-02T16:32:46.994Z,63.56
2023-07-02T16:35:15.267Z,63.62
2023-07-02T16:37:41.859Z,64.09
2023-07-02T16:40:09.247Z,64.68
2023-07-02T16:42:35.858Z,65.29
2023-07-02T16:45:02.466Z,65.50
2023-07-02T16:47:29.111Z,63.40
2023-07-02T16:50:00.337Z,61.53
2023-07-02T16:52:29.597Z,60.41
2023-07-02T16:54:56.190Z,60.08
2023-07-02T16:57:22.842Z,60.56
2023-07-02T16:59:52.124Z,60.95
2023-07-02T17:02:19.492Z,60.63
2023-07-02T17:04:46.280Z,61.02
2023-07-02T17:07:12.965Z,61.55
2023-07-02T17:09:41.125Z,61.46
2023-07-02T17:12:10.657Z,61.19
2023-07-02T17:14:38.929Z,62.58
2023-07-02T17:17:08.443Z,62.64
2023-07-02T17:19:36.674Z,62.87
2023-07-02T17:22:05.234Z,63.38
2023-07-02T17:24:34.408Z,63.97
2023-07-02T17:27:03.261Z,63.18
2023-07-02T17:29:30.419Z,63.41
2023-07-02T17:31:58.230Z,62.81
2023-07-02T17:34:26.575Z,63.56
2023-07-02T17:36:55.236Z,62.99
2023-07-02T17:39:22.155Z,64.05
2023-07-02T17:41:50.179Z,64.18
2023-07-02T17:44:19.632Z,64.90
2023-07-02T17:46:46.288Z,65.51
2023-07-02T17:49:12.939Z,66.15
2023-07-02T17:51:39.560Z,66.01
2023-07-02T17:54:06.552Z,65.77
2023-07-02T17:56:33.571Z,65.58
2023-07-02T17:59:00.279Z,65.94
2023-07-02T18:01:28.562Z,66.15
2023-07-02T18:03:55.439Z,66.46
2023-07-02T18:06:23.662Z,66.85
2023-07-02T18:08:50.414Z,67.03
2023-07-02T18:11:17.085Z,67.01
2023-07-02T18:13:46.829Z,67.21
2023-07-02T18:16:14.741Z,66.06
2023-07-02T18:18:42.689Z,66.70
2023-07-02T18:21:09.355Z,67.18
2023-07-02T18:23:36.029Z,67.53
2023-07-02T18:26:02.933Z,67.72
2023-07-02T18:28:29.677Z,67.48
2023-07-02T18:30:56.346Z,67.60
2023-07-02T18:33:23.424Z,68.06
2023-07-02T18:35:51.693Z,67.64
2023-07-02T18:38:18.969Z,67.74
2023-07-02T18:40:45.813Z,67.68
2023-07-02T18:43:12.884Z,68.07
2023-07-02T18:45:39.492Z,67.79
2023-07-02T18:48:06.761Z,67.97
2023-07-02T18:50:33.334Z,67.84
2023-07-02T18:53:01.668Z,67.87
2023-07-02T18:55:28.270Z,67.54
2023-07-02T18:57:54.816Z,68.15
2023-07-02T19:00:21.399Z,69.77
2023-07-02T19:02:49.191Z,70.04
2023-07-02T19:05:16.296Z,69.55
2023-07-02T19:07:42.905Z,69.80
2023-07-02T19:10:11.703Z,70.23
2023-07-02T19:12:38.352Z,71.81
2023-07-02T19:15:06.005Z,71.16
2023-07-02T19:17:32.614Z,71.33
2023-07-02T19:19:59.216Z,71.76
2023-07-02T19:22:26.088Z,71.48
2023-07-02T19:24:52.805Z,71.62
2023-07-02T19:27:20.708Z,72.15
2023-07-02T19:29:49.365Z,72.49
2023-07-02T19:32:15.946Z,72.75
2023-07-02T19:34:42.546Z,73.49
2023-07-02T19:37:09.130Z,73.11
2023-07-02T19:39:35.732Z,73.61
2023-07-02T19:42:02.401Z,73.42
2023-07-02T19:44:30.323Z,73.87
2023-07-02T19:46:56.893Z,74.26
2023-07-02T19:49:23.563Z,73.46
2023-07-02T19:51:50.251Z,73.77
2023-07-02T19:54:17.784Z,73.73
2023-07-02T19:56:44.668Z,73.83
2023-07-02T19:59:11.266Z,73.93
2023-07-02T20:01:39.184Z,74.61
2023-07-02T20:04:07.993Z,74.74
2023-07-02T20:06:34.867Z,74.26
2023-07-02T20:09:01.779Z,74.78
2023-07-02T20:11:28.354Z,74.28
2023-07-02T20:13:54.888Z,73.34
2023-07-02T20:16:21.479Z,73.49
2023-07-02T20:18:49.381Z,72.95
2023-07-02T20:21:15.938Z,72.80
2023-07-02T20:23:42.898Z,71.90
2023-07-02T20:26:14.071Z,72.29
2023-07-02T20:28:40.643Z,72.31
2023-07-02T20:31:07.521Z,71.99
2023-07-02T20:33:34.295Z,72.19
2023-07-02T20:36:02.237Z,71.97
2023-07-02T20:38:28.863Z,72.56
2023-07-02T20:40:58.660Z,73.21
2023-07-02T20:43:25.349Z,73.58
2023-07-02T20:45:52.032Z,74.19
2023-07-02T20:48:18.681Z,74.42
2023-07-02T20:50:45.259Z,75.57
2023-07-02T20:53:13.170Z,75.53
2023-07-02T20:55:39.788Z,76.90
2023-07-02T20:58:06.393Z,76.36
2023-07-02T21:00:32.972Z,76.66
2023-07-02T21:02:59.671Z,76.88
2023-07-02T21:05:26.288Z,77.28
2023-07-02T21:07:52.857Z,78.00
2023-07-02T21:10:20.728Z,78.86
2023-07-02T21:12:47.313Z,79.56
2023-07-02T21:15:14.015Z,80.40
2023-07-02T21:17:40.650Z,80.35
2023-07-02T21:20:08.070Z,80.40
2023-07-02T21:22:34.651Z,80.89
2023-07-02T21:25:01.459Z,81.48
2023-07-02T21:27:29.373Z,81.79
2023-07-02T21:29:55.937Z,82.23
2023-07-02T21:32:22.696Z,81.83
2023-07-02T21:34:49.311Z,82.01
2023-07-02T21:37:15.861Z,82.02
2023-07-02T21:39:42.425Z,81.69
2023-07-02T21:42:09.094Z,81.78
2023-07-02T21:44:37.007Z,81.21
2023-07-02T21:47:03.917Z,81.53
2023-07-02T21:49:30.496Z,81.44
2023-07-02T21:51:57.144Z,81.67
2023-07-02T21:54:23.754Z,80.42
2023-07-02T21:56:50.314Z,80.96
2023-07-02T21:59:25.676Z,81.08
2023-07-02T22:01:55.233Z,80.53
2023-07-02T22:04:21.917Z,80.21
2023-07-02T22:06:48.593Z,79.69
2023-07-02T22:09:15.244Z,78.96
2023-07-02T22:11:41.818Z,78.41
2023-07-02T22:14:08.369Z,78.10
2023-07-02T22:16:34.944Z,77.76
2023-07-02T22:19:02.879Z,77.90
2023-07-02T22:21:29.438Z,78.42
2023-07-02T22:23:56.011Z,78.25
2023-07-02T22:26:22.688Z,77.85
2023-07-02T22:28:49.273Z,77.58
2023-07-02T22:31:15.922Z,78.02
2023-07-02T22:33:42.509Z,77.94
2023-07-02T22:36:10.465Z,77.90
2023-07-02T22:38:37.078Z,77.96
2023-07-02T22:41:03.633Z,78.14
2023-07-02T22:43:30.204Z,78.23
2023-07-02T22:45:56.811Z,78.13
2023-07-02T22:48:23.488Z,78.70
2023-07-02T22:50:50.078Z,78.71
2023-07-02T22:53:17.987Z,78.52
2023-07-02T22:55:44.585Z,78.70
2023-07-02T22:58:11.155Z,79.34
2023-07-02T23:00:38.588Z,78.39
2023-07-02T23:03:05.304Z,78.47
2023-07-02T23:05:32.105Z,79.07
2023-07-02T23:07:58.889Z,78.86
2023-07-02T23:10:26.847Z,78.71
2023-07-02T23:12:53.447Z,78.85
2023-07-02T23:15:21.145Z,78.81
2023-07-02T23:17:49.392Z,78.57
2023-07-02T23:20:16.969Z,78.80
2023-07-02T23:22:43.889Z,78.22
2023-07-02T23:25:12.535Z,78.22
2023-07-02T23:27:40.912Z,78.42
2023-07-02T23:30:10.046Z,78.31
2023-07-02T23:32:36.450Z,77.91
2023-07-02T23:35:03.242Z,78.35
2023-07-02T23:37:29.811Z,78.39
2023-07-02T23:39:56.353Z,78.83
2023-07-02T23:42:22.926Z,78.66
2023-07-02T23:44:50.967Z,79.49
2023-07-02T23:47:17.541Z,78.61
2023-07-02T23:49:44.135Z,78.89
2023-07-02T23:52:10.724Z,79.05
2023-07-02T23:54:37.292Z,79.63
2023-07-02T23:57:04.044Z,80.06
2023-07-02T23:59:30.581Z,79.91
